Data for 08/20/2015

Time Sea-Level Adjusted Pressure Absolute Pressure Temperature Relative Humidity Dew Point   
(mb) (inHg) (mb) (inHg) (C) (F) (%) (C) (F)
00:05 1016 30 845 24.95 15.5 59.8 43 3.1 37.6
00:10 1016 30 845 24.95 16 60.8 43 3.4 38.1
00:15 1016 30 845 24.95 16.2 61.1 43 3.6 38.5
00:20 1016 30 845 24.95 16.2 61.2 43 3.7 38.7
00:25 1016 30 845 24.95 15.9 60.6 44 3.8 38.9
00:30 1016 30 845 24.95 15.7 60.2 45 3.7 38.7
00:35 1016 30 845 24.95 15.3 59.5 45 3.4 38.2
00:40 1016 30 845 24.95 15.5 59.8 46 3.8 38.9
00:45 1016 30 845 24.95 15.4 59.6 45 3.5 38.3
00:50 1016 30 845 24.95 15.7 60.2 44 3.6 38.5
00:55 1016 30 845 24.95 15.5 60 45 3.7 38.6
01:00 1016 30 845 24.95 15.2 59.3 48 4.3 39.7
01:05 1016 30 845 24.95 14.9 58.8 47 3.7 38.7
01:10 1016 30 845 24.95 15.1 59.1 47 3.8 38.9
01:15 1016 30 845 24.95 15 59 46 3.5 38.4
01:20 1016 30 845 24.95 15 59 46 3.6 38.6
01:25 1016 30 845 24.95 15 59.1 47 3.9 39.1
01:30 1016 30 845 24.95 15.1 59.1 46 3.7 38.7
01:35 1016 30 845 24.95 15.1 59.3 46 3.6 38.6
01:40 1016 30 845 24.95 15.5 59.9 43 2.9 37.3
01:45 1016 30 845 24.95 16 60.8 42 3.2 37.8
01:50 1016 30 845 24.95 15.9 60.7 42 3.1 37.5
01:55 1016 30 845 24.95 16.1 60.9 44 3.8 38.8
02:00 1016 30 845 24.95 15.4 59.6 44 3.4 38.1
02:05 1016 30 845 24.95 15.4 59.7 46 3.8 38.8
02:10 1016 30 845 24.95 15 59 49 4.4 39.9
02:15 1016 30 845 24.95 14.5 58.1 50 4.2 39.6
02:20 1016 30 845 24.95 14.2 57.6 49 3.8 38.9
02:25 1016 30 845 24.95 14.2 57.6 50 4.1 39.3
02:30 1016 30 845 24.95 13.7 56.7 54 4.8 40.6
02:35 1016 30 845 24.95 13.2 55.8 53 3.8 38.9
02:40 1016 30 845 24.95 13.6 56.6 51 3.7 38.7
02:45 1016 30 845 24.95 14 57.2 49 3.4 38.2
02:50 1016 30 845 24.95 14.2 57.6 49 3.9 38.9
02:55 1016 30 845 24.95 13.8 56.8 53 4.4 40
03:00 1016 30 845 24.95 13.3 55.9 52 3.7 38.7
03:05 1016 30 845 24.95 13.2 55.8 53 3.8 38.8
03:10 1016 30 845 24.95 13 55.5 53 3.9 39
03:15 1016 30 845 24.95 13.3 55.9 54 4.2 39.6
03:20 1016 30 845 24.95 13.4 56.1 50 3.3 37.9
03:25 1016 30 845 24.95 13.4 56.2 54 4.3 39.7
03:30 1016 30 845 24.95 13.1 55.5 53 3.8 38.8
03:35 1016 30 845 24.95 13.3 55.9 50 3.3 37.9
03:40 1016 30 845 24.95 13.8 56.9 49 3.4 38.1
03:45 1016 30 845 24.95 13.7 56.7 51 3.7 38.7
03:50 1016 30 845 24.95 13.6 56.4 51 3.6 38.5
03:55 1016 30 845 24.95 13.5 56.2 52 4 39.2
04:00 1016 30 845 24.95 13.3 55.9 52 3.8 38.8
04:05 1016 30 845 24.95 13 55.5 55 4.3 39.7
04:10 1016 30 845 24.95 12.5 54.5 57 4.4 39.8
04:15 1016 30 845 24.95 12.1 53.9 58 4.1 39.5
04:20 1016 30 845 24.95 12 53.5 58 4 39.2
04:25 1016 30 845 24.95 11.8 53.3 58 4 39.2
04:30 1016 30 845 24.95 11.8 53.3 58 4 39.2
04:35 1016 30 845 24.95 12 53.7 57 3.9 39
04:40 1016 30 846 24.98 12.2 53.9 57 3.9 39
04:45 1016 30 845 24.95 12.2 53.9 57 4 39.2
04:50 1016 30 846 24.98 11.9 53.4 59 4.1 39.4
04:55 1016 30 846 24.98 11.3 52.4 63 4.6 40.2
05:00 1016 30 846 24.98 10.7 51.3 62 3.8 38.8
05:05 1016 30 845 24.95 11.1 52 59 3.5 38.2
05:10 1016 30 845 24.95 11.7 53 56 3.3 38
05:15 1016 30 845 24.95 12.1 53.8 55 3.3 37.9
05:20 1016 30 846 24.98 11.8 53.2 60 4.2 39.6
05:25 1016 30 846 24.98 11.4 52.5 55 2.6 36.7
05:30 1016 30 846 24.98 12 53.6 56 3.5 38.4
05:35 1016 30 846 24.98 11.7 53.1 57 3.5 38.3
05:40 1016 30 846 24.98 11.6 52.9 57 3.3 38
05:45 1017 30.03 846 24.98 11.7 53 56 3.2 37.8
05:50 1017 30.03 846 24.98 11.9 53.3 54 2.8 37.1
05:55 1017 30.03 846 24.98 12.4 54.3 51 2.5 36.5
06:00 1017 30.03 846 24.98 12.8 55 50 2.7 36.9
06:05 1017 30.03 846 24.98 13 55.5 49 2.7 36.8
06:10 1017 30.03 846 24.98 13 55.4 51 3.2 37.8
06:15 1017 30.03 846 24.98 12.8 55 51 3 37.3
06:20 1017 30.03 846 24.98 12.8 55 50 2.8 37
06:25 1017 30.03 846 24.98 13 55.3 49 2.7 36.8
06:30 1017 30.03 846 24.98 13.3 55.9 50 3.1 37.5
06:35 1017 30.03 846 24.98 13.2 55.7 52 3.6 38.4
06:40 1017 30.03 846 24.98 12.4 54.4 55 3.8 38.9
06:45 1017 30.03 846 24.98 12.2 54 56 3.8 38.8
06:50 1017 30.03 846 24.98 12.4 54.4 55 3.8 38.8
06:55 1017 30.03 846 24.98 12.8 55 56 4.3 39.7
07:00 1017 30.03 846 24.98 12.9 55.2 53 3.5 38.4
07:05 1017 30.03 846 24.98 13.3 56 53 4 39.2
07:10 1017 30.03 846 24.98 13.4 56.1 55 4.7 40.4
07:15 1017 30.03 846 24.98 13.3 55.9 55 4.3 39.8
07:20 1017 30.03 846 24.98 13.4 56 56 4.9 40.7
07:25 1017 30.03 846 24.98 13.4 56.1 55 4.5 40.1
07:30 1017 30.03 846 24.98 13.4 56.1 57 5.1 41.2
07:35 1017 30.03 846 24.98 13.5 56.3 54 4.5 40.1
07:40 1017 30.03 846 24.98 13.8 56.9 56 5.3 41.6
07:45 1017 30.03 846 24.98 13.9 57 56 5.3 41.5
07:50 1017 30.03 846 24.98 14.1 57.3 56 5.5 41.8
07:55 1017 30.03 846 24.98 14.2 57.6 52 4.6 40.3
08:00 1017 30.03 846 24.98 14.5 58.2 50 4.3 39.7
08:05 1017 30.03 846 24.98 14.9 58.8 53 5.4 41.8
08:10 1017 30.03 846 24.98 15.1 59.3 50 4.9 40.8
08:15 1017 30.03 846 24.98 15.6 60 51 5.5 41.9
08:20 1017 30.03 846 24.98 16 60.8 53 6.4 43.5
08:25 1017 30.03 846 24.98 16.4 61.5 52 6.6 43.8
08:30 1017 30.03 846 24.98 16.7 62.1 48 5.8 42.4
08:35 1017 30.03 846 24.98 16.9 62.5 47 5.7 42.3
08:40 1017 30.03 846 24.98 16.9 62.5 50 6.7 44
08:45 1017 30.03 846 24.98 17 62.7 52 7.1 44.8
08:50 1017 30.03 846 24.98 16.9 62.5 51 6.8 44.2
08:55 1017 30.03 846 24.98 17.2 63 48 6.2 43.2
09:00 1017 30.03 846 24.98 17.8 64 46 6.1 43
09:05 1017 30.03 846 24.98 18.4 65.1 46 6.6 43.9
09:10 1017 30.03 846 24.98 18.2 64.7 42 5.3 41.5
09:15 1017 30.03 846 24.98 18.3 65 40 4.7 40.4
09:20 1017 30.03 846 24.98 18.4 65.2 39 4.4 39.9
09:25 1017 30.03 846 24.98 18.8 65.9 35 3.2 37.7
09:30 1017 30.03 846 24.98 18.8 65.8 35 3.1 37.6
09:35 1017 30.03 846 24.98 18.6 65.5 38 4 39.2
09:40 1017 30.03 846 24.98 18.7 65.7 39 4.7 40.4
09:45 1017 30.03 846 24.98 18.3 65 40 4.7 40.4
09:50 1017 30.03 846 24.98 18.7 65.6 39 4.7 40.5
09:55 1017 30.03 846 24.98 18.9 66 39 4.6 40.3
10:00 1017 30.03 846 24.98 19 66.1 38 4.4 39.9
10:05 1017 30.03 846 24.98 19.5 67.2 38 4.9 40.8
10:10 1017 30.03 846 24.98 19.7 67.4 38 5.3 41.5
10:15 1017 30.03 846 24.98 19.4 66.9 37 4.5 40.1
10:20 1017 30.03 846 24.98 19.4 66.8 39 5.2 41.3
10:25 1017 30.03 846 24.98 19.5 67.1 38 4.9 40.8
10:30 1017 30.03 846 24.98 19.7 67.5 38 5.2 41.3
10:35 1017 30.03 846 24.98 19.9 67.9 38 5.4 41.6
10:40 1017 30.03 846 24.98 20.4 68.7 35 4.5 40.2
10:45 1017 30.03 846 24.98 20.6 69.1 29 2.3 36.1
10:50 1017 30.03 846 24.98 20.4 68.6 34 3.9 39.1
10:55 1017 30.03 846 24.98 20.1 68.1 37 5.3 41.5
11:00 1017 30.03 846 24.98 20.3 68.6 37 5.3 41.5
11:05 1017 30.03 846 24.98 20.6 69.1 34 4.5 40.1
11:10 1017 30.03 846 24.98 21.2 70.1 32 4.1 39.4
11:15 1016 30 846 24.98 21.9 71.4 30 3.7 38.6
11:20 1016 30 846 24.98 21.6 70.9 28 2.5 36.6
11:25 1016 30 846 24.98 21.2 70.1 28 1.9 35.5
11:30 1016 30 846 24.98 20.9 69.6 28 1.8 35.2
11:35 1016 30 845 24.95 21 69.7 27 1.4 34.6
11:40 1016 30 845 24.95 21.2 70.1 29 2.5 36.5
11:45 1016 30 845 24.95 21.6 70.9 27 2.2 36
11:50 1016 30 845 24.95 21.8 71.3 26 1.8 35.3
11:55 1016 30 845 24.95 22 71.6 27 2.4 36.4
12:00 1016 30 845 24.95 22.1 71.8 26 1.7 35.1
12:05 1016 30 845 24.95 22.1 71.7 26 1.7 35.1
12:10 1016 30 845 24.95 22.5 72.5 25 1.6 34.9
12:15 1016 30 845 24.95 22.9 73.1 25 1.7 35.1
12:20 1016 30 845 24.95 23.2 73.8 23 1.3 34.4
12:25 1016 30 845 24.95 22.8 73 23 0.9 33.6
12:30 1016 30 845 24.95 23.1 73.7 23 1.1 33.9
12:35 1016 30 845 24.95 23.2 73.7 23 1 33.8
12:40 1016 30 845 24.95 23.1 73.6 23 0.9 33.5
12:45 1016 30 845 24.95 23.3 74 23 1 33.7
12:50 1016 30 845 24.95 23.2 73.7 23 1 33.9
12:55 1016 30 845 24.95 23.1 73.5 22 0.6 33
13:00 1016 30 845 24.95 22.3 72.1 23 0.6 33
13:05 1016 30 845 24.95 22.6 72.7 24 0.9 33.7
13:10 1016 30 845 24.95 22.4 72.2 22 -0 32
13:15 1016 30 845 24.95 22.4 72.4 23 0.6 33
13:20 1016 30 845 24.95 22.7 72.8 22 -0 32
13:25 1016 30 845 24.95 22.7 72.9 23 0.5 32.9
13:30 1015 29.97 845 24.95 23.3 74 22 0.9 33.6
13:35 1015 29.97 845 24.95 23.5 74.3 21 0.3 32.6
13:40 1015 29.97 845 24.95 23.3 73.9 21 -0.2 31.6
13:45 1015 29.97 844 24.92 23.1 73.6 21 -0.2 31.7
13:50 1015 29.97 844 24.92 23.6 74.4 20 -0.6 30.9
13:55 1015 29.97 844 24.92 23.6 74.5 21 0.4 32.7
14:00 1015 29.97 844 24.92 23.5 74.2 21 0.4 32.7
14:05 1015 29.97 844 24.92 24.1 75.4 21 0.8 33.4
14:10 1015 29.97 844 24.92 24.4 75.8 21 0.7 33.3
14:15 1015 29.97 844 24.92 24.1 75.3 20 -0 31.9
14:20 1015 29.97 844 24.92 24.5 76.2 20 0 32.1
14:25 1015 29.97 844 24.92 24.1 75.3 19 -0.4 31.2
14:30 1015 29.97 844 24.92 24.3 75.8 21 0.9 33.6
14:35 1015 29.97 844 24.92 24.3 75.7 20 0.1 32.1
14:40 1015 29.97 844 24.92 24.1 75.3 21 0.6 33
14:45 1015 29.97 844 24.92 24.3 75.7 20 -0.2 31.7
14:50 1015 29.97 844 24.92 24.2 75.5 20 -0.2 31.6
14:55 1015 29.97 844 24.92 24.1 75.3 20 0.1 32.2
15:00 1015 29.97 844 24.92 24.6 76.2 19 0 32
15:05 1014 29.94 844 24.92 24.5 76.1 19 -0.3 31.4
15:10 1014 29.94 844 24.92 24.6 76.2 20 0.5 32.9
15:15 1014 29.94 843 24.89 24.8 76.7 20 0.2 32.4
15:20 1014 29.94 843 24.89 24.9 76.8 20 0.3 32.6
15:25 1014 29.94 843 24.89 25.3 77.5 20 0.7 33.2
15:30 1014 29.94 843 24.89 25.6 78.1 18 -0.1 31.8
15:35 1014 29.94 843 24.89 26 78.7 17 -0.6 31
15:40 1014 29.94 843 24.89 26.2 79.1 17 -0.2 31.7
15:45 1014 29.94 843 24.89 26.1 79 18 0.3 32.6
15:50 1014 29.94 843 24.89 26.6 79.9 18 0.7 33.3
15:55 1014 29.94 843 24.89 26.4 79.4 18 0.5 32.9
16:00 1014 29.94 843 24.89 26.1 78.9 18 -0 31.9
16:05 1014 29.94 843 24.89 25.6 78.2 18 -0.2 31.6
16:10 1014 29.94 843 24.89 25.8 78.4 19 0.4 32.7
16:15 1014 29.94 843 24.89 25.8 78.4 19 1 33.9
16:20 1013 29.91 843 24.89 25.3 77.5 20 1.2 34.2
16:25 1013 29.91 843 24.89 24.9 76.8 20 0.7 33.2
16:30 1013 29.91 843 24.89 24.8 76.6 20 0.7 33.2
16:35 1013 29.91 843 24.89 24.9 76.7 19 0.1 32.2
16:40 1013 29.91 843 24.89 24.8 76.6 20 0.4 32.8
16:45 1013 29.91 843 24.89 24.6 76.3 20 0.3 32.6
16:50 1013 29.91 843 24.89 24.6 76.3 21 0.8 33.4
16:55 1013 29.91 842 24.86 24.6 76.3 20 0.4 32.7
17:00 1013 29.91 842 24.86 24.6 76.4 20 0.5 32.8
17:05 1013 29.91 842 24.86 24.6 76.4 19 0.1 32.1
17:10 1013 29.91 842 24.86 24.9 76.9 19 0.1 32.1
17:15 1013 29.91 842 24.86 25.1 77.1 19 0.3 32.5
17:20 1013 29.91 842 24.86 25.4 77.7 20 1.1 33.9
17:25 1013 29.91 842 24.86 25.2 77.3 21 1.4 34.5
17:30 1013 29.91 842 24.86 25 76.9 20 0.7 33.2
17:35 1013 29.91 842 24.86 24.8 76.6 21 1 33.8
17:40 1013 29.91 842 24.86 24.6 76.2 24 3.1 37.6
17:45 1013 29.91 842 24.86 24.1 75.4 23 2.2 35.9
17:50 1013 29.91 842 24.86 24.1 75.4 21 0.7 33.2
17:55 1013 29.91 842 24.86 24.4 75.9 22 1.4 34.6
18:00 1013 29.91 842 24.86 24.5 76.1 25 3.4 38.1
18:05 1013 29.91 842 24.86 24.4 75.8 24 2.8 37.1
18:10 1013 29.91 842 24.86 24.2 75.6 26 3.5 38.3
18:15 1013 29.91 842 24.86 24.1 75.4 25 3.3 38
18:20 1013 29.91 842 24.86 23.9 75.1 25 3.2 37.8
18:25 1013 29.91 842 24.86 23.8 74.8 24 2.4 36.3
18:30 1013 29.91 842 24.86 23.6 74.5 25 2.9 37.2
18:35 1013 29.91 842 24.86 23.5 74.2 26 2.9 37.2
18:40 1013 29.91 842 24.86 23.3 73.9 26 2.9 37.3
18:45 1013 29.91 842 24.86 23.1 73.6 29 4.5 40.2
18:50 1013 29.91 842 24.86 22.9 73.1 27 2.9 37.3
18:55 1013 29.91 842 24.86 22.6 72.7 32 5.1 41.2
19:00 1013 29.91 842 24.86 22.3 72.2 28 3.2 37.8
19:05 1013 29.91 842 24.86 22.1 71.7 33 5.3 41.6
19:10 1013 29.91 842 24.86 21.6 70.9 31 4.1 39.3
19:15 1013 29.91 842 24.86 21.4 70.6 36 6.1 43
19:20 1013 29.91 842 24.86 20.9 69.6 40 7.1 44.8
19:25 1013 29.91 842 24.86 20.2 68.4 44 7.8 46
19:30 1013 29.91 842 24.86 19.4 66.9 47 7.9 46.2
19:35 1013 29.91 842 24.86 18.6 65.5 51 8.3 47
19:40 1012 29.88 842 24.86 18.1 64.7 47 6.6 43.9
19:45 1013 29.91 842 24.86 18 64.5 49 7.1 44.9
19:50 1013 29.91 842 24.86 17.9 64.1 47 6.5 43.7
19:55 1013 29.91 842 24.86 17.7 63.8 48 6.7 44
20:00 1013 29.91 842 24.86 17.5 63.5 44 5.3 41.6
20:05 1013 29.91 842 24.86 17.7 63.8 42 4.8 40.6
20:10 1013 29.91 842 24.86 17.7 63.9 40 4 39.2
20:15 1013 29.91 842 24.86 17.6 63.7 40 4 39.2
20:20 1013 29.91 842 24.86 17.5 63.6 37 2.8 37
20:25 1013 29.91 842 24.86 17.6 63.7 41 4.3 39.7
20:30 1013 29.91 842 24.86 17.3 63.1 38 3.1 37.6
20:35 1013 29.91 842 24.86 17.2 62.9 37 2.6 36.7
20:40 1013 29.91 842 24.86 17.3 63.2 37 2.4 36.4
20:45 1013 29.91 842 24.86 17.4 63.3 36 2.4 36.3
20:50 1013 29.91 842 24.86 17.3 63.2 35 1.8 35.2
20:55 1013 29.91 842 24.86 17.7 63.8 33 1.5 34.7
21:00 1013 29.91 842 24.86 17.7 63.9 31 0.4 32.7
21:05 1013 29.91 842 24.86 18.2 64.8 29 0 32.1
21:10 1013 29.91 842 24.86 18 64.5 31 0.8 33.4
21:15 1013 29.91 842 24.86 17.6 63.7 30 -0 32
21:20 1013 29.91 842 24.86 17.8 64 30 0.2 32.4
21:25 1013 29.91 842 24.86 18 64.4 30 0.4 32.8
21:30 1013 29.91 842 24.86 17.9 64.2 31 0.7 33.2
21:35 1013 29.91 842 24.86 17.4 63.2 32 0.7 33.3
21:40 1013 29.91 842 24.86 17 62.6 33 0.7 33.2
21:45 1013 29.91 842 24.86 16.8 62.3 31 -0.2 31.7
21:50 1013 29.91 842 24.86 16.8 62.2 32 0.1 32.1
21:55 1013 29.91 842 24.86 16.6 61.8 32 0.1 32.2
22:00 1013 29.91 842 24.86 16.4 61.5 33 0.2 32.4
22:05 1013 29.91 842 24.86 16.1 61 34 0.3 32.6
22:10 1013 29.91 842 24.86 16 60.8 33 -0.1 31.8
22:15 1013 29.91 842 24.86 16 60.8 34 0.2 32.3
22:20 1013 29.91 842 24.86 15.9 60.6 35 0.5 32.8
22:25 1013 29.91 842 24.86 15.8 60.4 35 0.5 32.9
22:30 1013 29.91 842 24.86 16 60.7 33 -0.1 31.8
22:35 1013 29.91 842 24.86 16.3 61.4 32 -0.2 31.6
22:40 1012 29.88 842 24.86 16.5 61.8 32 -0.3 31.4
22:45 1013 29.91 842 24.86 16.7 62.1 31 -0.3 31.4
22:50 1013 29.91 842 24.86 16.6 62 32 -0.2 31.6
22:55 1013 29.91 842 24.86 16.3 61.3 35 1 33.8
23:00 1013 29.91 842 24.86 15.6 60.2 37 1.2 34.2
23:05 1013 29.91 842 24.86 15.4 59.7 37 1 33.8
23:10 1013 29.91 842 24.86 15.3 59.6 36 0.3 32.5
23:15 1013 29.91 842 24.86 15.4 59.8 38 1.4 34.6
23:20 1013 29.91 842 24.86 14.9 58.8 38 0.9 33.6
23:25 1013 29.91 842 24.86 15 58.9 39 1.3 34.3
23:30 1013 29.91 842 24.86 14.6 58.2 42 1.8 35.2
23:35 1013 29.91 842 24.86 14.4 57.8 42 1.7 35.1
23:40 1013 29.91 842 24.86 14.2 57.5 42 1.6 34.8
23:45 1013 29.91 842 24.86 14.2 57.6 40 1 33.7
23:50 1013 29.91 842 24.86 14.3 57.8 41 1.2 34.2
23:55 1013 29.91 842 24.86 14.2 57.5 43 1.8 35.2
24:00 1013 29.91 842 24.86 14.2 57.5 40 0.8 33.4